createdAt,value
2018-09-11T00:00:43.309Z,101669.91
2018-09-11T00:01:48.740Z,101665.00
2018-09-11T00:02:54.176Z,101663.25
2018-09-11T00:03:59.588Z,101668.00
2018-09-11T00:05:05.242Z,101662.77
2018-09-11T00:06:10.661Z,101667.86
2018-09-11T00:07:16.157Z,101664.06
2018-09-11T00:08:21.595Z,101660.79
2018-09-11T00:09:27.014Z,101663.70
2018-09-11T00:10:32.546Z,101657.59
2018-09-11T00:11:38.020Z,101658.88
2018-09-11T00:12:43.484Z,101655.83
2018-09-11T00:13:49.137Z,101653.52
2018-09-11T00:14:54.721Z,101645.20
2018-09-11T00:16:00.188Z,101647.33
2018-09-11T00:17:05.920Z,101648.67
2018-09-11T00:18:11.344Z,101645.30
2018-09-11T00:19:16.737Z,101650.43
2018-09-11T00:20:22.583Z,101643.81
2018-09-11T00:21:27.982Z,101639.61
2018-09-11T00:22:33.485Z,101638.47
2018-09-11T00:23:38.909Z,101643.17
2018-09-11T00:24:44.313Z,101642.86
2018-09-11T00:25:49.809Z,101642.44
2018-09-11T00:26:55.243Z,101642.48
2018-09-11T00:28:00.997Z,101636.90
2018-09-11T00:29:06.553Z,101636.27
2018-09-11T00:30:11.962Z,101633.20
2018-09-11T00:31:17.460Z,101633.20
2018-09-11T00:32:22.904Z,101634.04
2018-09-11T00:33:28.411Z,101641.04
2018-09-11T00:34:33.837Z,101638.27
2018-09-11T00:35:39.260Z,101635.69
2018-09-11T00:36:44.708Z,101631.39
2018-09-11T00:37:50.280Z,101638.38
2018-09-11T00:38:55.713Z,101626.34
2018-09-11T00:40:01.066Z,101628.16
2018-09-11T00:41:06.461Z,101632.46
2018-09-11T00:42:11.897Z,101622.67
2018-09-11T00:43:17.412Z,101622.72
2018-09-11T00:44:22.821Z,101619.34
2018-09-11T00:45:28.224Z,101618.33
2018-09-11T00:46:33.888Z,101623.51
2018-09-11T00:47:39.353Z,101629.47
2018-09-11T00:48:44.793Z,101624.39
2018-09-11T00:49:50.668Z,101626.28
2018-09-11T00:50:56.108Z,101624.11
2018-09-11T00:52:01.643Z,101622.59
2018-09-11T00:53:07.097Z,101620.51
2018-09-11T00:54:12.605Z,101619.55
2018-09-11T00:55:18.109Z,101621.20
2018-09-11T00:56:23.561Z,101622.59
2018-09-11T00:57:28.945Z,101617.46
2018-09-11T00:58:34.329Z,101615.80
2018-09-11T00:59:39.734Z,101615.33
2018-09-11T01:00:45.165Z,101613.63
2018-09-11T01:01:50.565Z,101613.30
2018-09-11T01:02:56.041Z,101612.01
2018-09-11T01:04:01.480Z,101610.25
2018-09-11T01:05:07.005Z,101613.34
2018-09-11T01:06:12.459Z,101612.52
2018-09-11T01:07:17.941Z,101609.23
2018-09-11T01:08:23.521Z,101611.78
2018-09-11T01:09:28.956Z,101607.99
2018-09-11T01:10:34.437Z,101599.85
2018-09-11T01:11:39.870Z,101610.58
2018-09-11T01:12:45.370Z,101603.27
2018-09-11T01:13:50.805Z,101608.09
2018-09-11T01:14:56.237Z,101613.58
2018-09-11T01:16:01.658Z,101615.38
2018-09-11T01:17:07.091Z,101619.59
2018-09-11T01:18:12.524Z,101620.05
2018-09-11T01:19:18.021Z,101621.89
2018-09-11T01:20:23.510Z,101622.68
2018-09-11T01:21:28.918Z,101619.26
2018-09-11T01:22:34.289Z,101620.98
2018-09-11T01:23:39.700Z,101614.13
2018-09-11T01:24:45.096Z,101613.77
2018-09-11T01:25:50.749Z,101608.55
2018-09-11T01:26:56.169Z,101615.80
2018-09-11T01:28:01.574Z,101619.22
2018-09-11T01:29:07.272Z,101623.14
2018-09-11T01:30:16.755Z,101624.39
2018-09-11T01:31:22.204Z,101627.39
2018-09-11T01:32:27.835Z,101626.59
2018-09-11T01:33:33.268Z,101626.97
2018-09-11T01:34:38.720Z,101624.34
2018-09-11T01:35:44.166Z,101621.85
2018-09-11T01:36:49.624Z,101623.19
2018-09-11T01:37:55.065Z,101620.68
2018-09-11T01:39:00.464Z,101626.69
2018-09-11T01:40:05.944Z,101622.40
2018-09-11T01:41:11.396Z,101625.35
2018-09-11T01:42:16.888Z,101624.48
2018-09-11T01:43:22.486Z,101625.49
2018-09-11T01:44:27.884Z,101626.14
2018-09-11T01:45:33.329Z,101622.77
2018-09-11T01:46:38.721Z,101629.97
2018-09-11T01:47:44.099Z,101629.92
2018-09-11T01:48:49.490Z,101627.01
2018-09-11T01:49:55.028Z,101625.58
2018-09-11T01:51:00.449Z,101619.02
2018-09-11T01:52:06.497Z,101617.27
2018-09-11T01:53:11.889Z,101616.89
2018-09-11T01:54:17.361Z,101623.82
2018-09-11T01:55:22.805Z,101625.16
2018-09-11T01:56:28.488Z,101628.58
2018-09-11T01:57:33.918Z,101631.96
2018-09-11T01:58:39.324Z,101630.67
2018-09-11T01:59:44.725Z,101629.69
2018-09-11T02:00:50.118Z,101622.72
2018-09-11T02:01:55.545Z,101620.08
2018-09-11T02:03:00.981Z,101622.21
2018-09-11T02:04:06.457Z,101621.33
2018-09-11T02:05:11.822Z,101627.29
2018-09-11T02:06:17.233Z,101626.41
2018-09-11T02:07:22.701Z,101624.47
2018-09-11T02:08:28.144Z,101622.89
2018-09-11T02:09:33.552Z,101622.34
2018-09-11T02:10:38.924Z,101621.83
2018-09-11T02:11:44.324Z,101625.11
2018-09-11T02:12:49.765Z,101624.27
2018-09-11T02:13:55.200Z,101621.18
2018-09-11T02:15:00.634Z,101615.50
2018-09-11T02:16:06.265Z,101617.25
2018-09-11T02:17:11.660Z,101615.17
2018-09-11T02:18:17.115Z,101619.14
2018-09-11T02:19:22.521Z,101619.14
2018-09-11T02:20:28.053Z,101627.31
2018-09-11T02:21:33.468Z,101630.88
2018-09-11T02:22:38.894Z,101629.98
2018-09-11T02:23:44.302Z,101631.28
2018-09-11T02:24:49.708Z,101630.78
2018-09-11T02:25:55.148Z,101628.61
2018-09-11T02:27:00.561Z,101632.03
2018-09-11T02:28:06.328Z,101633.66
2018-09-11T02:29:11.823Z,101634.16
2018-09-11T02:30:17.213Z,101629.95
2018-09-11T02:31:22.617Z,101631.33
2018-09-11T02:32:28.057Z,101632.17
2018-09-11T02:33:33.460Z,101630.95
2018-09-11T02:34:38.924Z,101628.83
2018-09-11T02:35:44.356Z,101634.17
2018-09-11T02:36:49.937Z,101641.70
2018-09-11T02:37:55.372Z,101635.23
2018-09-11T02:39:00.781Z,101628.31
2018-09-11T02:40:06.381Z,101627.44
2018-09-11T02:41:11.840Z,101626.52
2018-09-11T02:42:17.274Z,101622.59
2018-09-11T02:43:22.689Z,101620.80
2018-09-11T02:44:28.197Z,101619.67
2018-09-11T02:45:33.622Z,101614.84
2018-09-11T02:46:39.685Z,101613.50
2018-09-11T02:47:45.372Z,101612.66
2018-09-11T02:48:50.799Z,101612.62
2018-09-11T02:49:56.321Z,101617.37
2018-09-11T02:51:01.762Z,101619.13
2018-09-11T02:52:07.495Z,101616.13
2018-09-11T02:53:13.076Z,101617.64
2018-09-11T02:54:18.480Z,101613.30
2018-09-11T02:55:23.938Z,101616.68
2018-09-11T02:56:29.317Z,101611.46
2018-09-11T02:57:34.785Z,101614.80
2018-09-11T02:58:40.151Z,101613.40
2018-09-11T02:59:45.592Z,101611.31
2018-09-11T03:00:51.021Z,101604.22
2018-09-11T03:01:56.416Z,101608.09
2018-09-11T03:03:01.905Z,101610.69
2018-09-11T03:04:07.336Z,101611.85
2018-09-11T03:05:12.717Z,101601.34
2018-09-11T03:06:18.401Z,101596.50
2018-09-11T03:07:23.803Z,101606.42
2018-09-11T03:08:29.200Z,101603.64
2018-09-11T03:09:34.593Z,101598.14
2018-09-11T03:10:39.994Z,101603.09
2018-09-11T03:11:45.381Z,101597.45
2018-09-11T03:12:50.831Z,101595.05
2018-09-11T03:13:56.224Z,101597.18
2018-09-11T03:15:01.707Z,101589.37
2018-09-11T03:16:07.225Z,101595.84
2018-09-11T03:17:12.726Z,101593.80
2018-09-11T03:18:18.129Z,101592.97
2018-09-11T03:19:23.552Z,101600.67
2018-09-11T03:20:28.997Z,101604.14
2018-09-11T03:21:34.452Z,101605.84
2018-09-11T03:22:39.886Z,101601.47
2018-09-11T03:23:45.294Z,101598.88
2018-09-11T03:24:50.759Z,101591.39
2018-09-11T03:25:56.165Z,101592.02
2018-09-11T03:27:02.007Z,101589.80
2018-09-11T03:28:07.408Z,101589.98
2018-09-11T03:29:12.782Z,101587.02
2018-09-11T03:30:18.946Z,101590.48
2018-09-11T03:31:24.578Z,101587.98
2018-09-11T03:32:30.053Z,101599.23
2018-09-11T03:33:35.517Z,101583.36
2018-09-11T03:34:40.932Z,101579.44
2018-09-11T03:35:46.346Z,101579.84
2018-09-11T03:36:51.760Z,101578.52
2018-09-11T03:37:57.248Z,101580.59
2018-09-11T03:39:02.707Z,101577.56
2018-09-11T03:40:08.140Z,101570.64
2018-09-11T03:41:13.577Z,101573.39
2018-09-11T03:42:19.000Z,101571.30
2018-09-11T03:43:24.445Z,101569.02
2018-09-11T03:44:29.879Z,101562.51
2018-09-11T03:45:35.394Z,101564.84
2018-09-11T03:46:40.877Z,101559.59
2018-09-11T03:47:46.239Z,101556.92
2018-09-11T03:48:51.684Z,101556.55
2018-09-11T03:49:57.257Z,101550.47
2018-09-11T03:51:02.628Z,101557.72
2018-09-11T03:52:08.089Z,101556.18
2018-09-11T03:53:13.568Z,101555.39
2018-09-11T03:54:18.945Z,101559.67
2018-09-11T03:55:24.369Z,101556.05
2018-09-11T03:56:29.787Z,101555.13
2018-09-11T03:57:35.252Z,101552.30
2018-09-11T03:58:40.699Z,101556.09
2018-09-11T03:59:46.110Z,101554.93
2018-09-11T04:00:51.510Z,101555.47
2018-09-11T04:01:56.925Z,101544.34
2018-09-11T04:03:02.329Z,101546.89
2018-09-11T04:04:07.871Z,101551.77
2018-09-11T04:05:13.289Z,101554.69
2018-09-11T04:06:19.340Z,101548.23
2018-09-11T04:07:24.830Z,101546.84
2018-09-11T04:08:30.240Z,101551.72
2018-09-11T04:09:35.748Z,101556.52
2018-09-11T04:10:41.308Z,101555.19
2018-09-11T04:11:46.728Z,101558.36
2018-09-11T04:12:52.116Z,101560.84
2018-09-11T04:13:57.553Z,101553.89
2018-09-11T04:15:02.980Z,101560.84
2018-09-11T04:16:08.737Z,101559.89
2018-09-11T04:17:14.132Z,101561.27
2018-09-11T04:18:19.607Z,101556.56
2018-09-11T04:19:24.974Z,101562.61
2018-09-11T04:20:30.404Z,101566.10
2018-09-11T04:21:35.857Z,101557.56
2018-09-11T04:22:41.339Z,101559.73
2018-09-11T04:23:46.796Z,101567.89
2018-09-11T04:24:52.361Z,101559.73
2018-09-11T04:25:57.874Z,101554.60
2018-09-11T04:27:03.372Z,101559.93
2018-09-11T04:28:08.776Z,101556.02
2018-09-11T04:29:14.229Z,101553.97
2018-09-11T04:30:19.678Z,101555.77
2018-09-11T04:31:25.105Z,101550.48
2018-09-11T04:32:30.470Z,101546.52
2018-09-11T04:33:36.478Z,101551.64
2018-09-11T04:34:41.907Z,101549.94
2018-09-11T04:35:47.408Z,101546.81
2018-09-11T04:36:52.856Z,101541.15
2018-09-11T04:37:58.266Z,101542.86
2018-09-11T04:39:05.054Z,101536.40
2018-09-11T04:40:10.487Z,101532.48
2018-09-11T04:41:15.957Z,101527.86
2018-09-11T04:42:21.544Z,101534.65
2018-09-11T04:43:27.081Z,101530.48
2018-09-11T04:44:32.541Z,101535.28
2018-09-11T04:45:37.946Z,101530.19
2018-09-11T04:46:43.323Z,101529.27
2018-09-11T04:47:48.801Z,101527.90
2018-09-11T04:48:54.305Z,101525.36
2018-09-11T04:49:59.710Z,101530.06
2018-09-11T04:51:05.756Z,101530.81
2018-09-11T04:52:11.301Z,101534.44
2018-09-11T04:53:16.714Z,101535.69
2018-09-11T04:54:22.312Z,101534.81
2018-09-11T04:55:27.805Z,101539.23
2018-09-11T04:56:33.228Z,101531.41
2018-09-11T04:57:38.617Z,101537.52
2018-09-11T04:58:44.062Z,101540.11
2018-09-11T04:59:49.560Z,101537.39
2018-09-11T05:00:54.990Z,101538.31
2018-09-11T05:02:00.672Z,101548.11
2018-09-11T05:03:06.230Z,101548.48
2018-09-11T05:04:11.653Z,101547.48
2018-09-11T05:05:17.073Z,101546.02
2018-09-11T05:06:22.474Z,101550.56
2018-09-11T05:07:28.147Z,101547.89
2018-09-11T05:08:33.561Z,101550.39
2018-09-11T05:09:39.046Z,101546.84
2018-09-11T05:10:44.488Z,101545.05
2018-09-11T05:11:49.891Z,101547.14
2018-09-11T05:12:55.358Z,101552.80
2018-09-11T05:14:00.912Z,101547.50
2018-09-11T05:15:06.398Z,101543.46
2018-09-11T05:16:11.808Z,101544.16
2018-09-11T05:17:17.225Z,101532.03
2018-09-11T05:18:22.685Z,101536.31
2018-09-11T05:19:28.125Z,101528.61
2018-09-11T05:20:33.485Z,101528.19
2018-09-11T05:21:38.908Z,101533.48
2018-09-11T05:22:44.357Z,101531.65
2018-09-11T05:23:49.762Z,101534.52
2018-09-11T05:24:55.287Z,101538.30
2018-09-11T05:26:00.812Z,101536.52
2018-09-11T05:27:06.207Z,101530.33
2018-09-11T05:28:11.643Z,101528.39
2018-09-11T05:29:17.180Z,101522.67
2018-09-11T05:30:22.689Z,101522.12
2018-09-11T05:31:28.156Z,101523.36
2018-09-11T05:32:33.683Z,101526.36
2018-09-11T05:33:39.150Z,101522.86
2018-09-11T05:34:44.649Z,101523.22
2018-09-11T05:35:50.177Z,101520.64
2018-09-11T05:36:55.635Z,101525.86
2018-09-11T05:38:01.064Z,101526.55
2018-09-11T05:39:09.662Z,101532.61
2018-09-11T05:40:14.953Z,101532.19
2018-09-11T05:41:20.393Z,101532.27
2018-09-11T05:42:26.144Z,101531.64
2018-09-11T05:43:31.557Z,101533.33
2018-09-11T05:44:36.974Z,101531.86
2018-09-11T05:45:42.480Z,101536.10
2018-09-11T05:46:47.997Z,101544.05
2018-09-11T05:47:53.471Z,101542.95
2018-09-11T05:48:58.853Z,101540.67
2018-09-11T05:50:04.440Z,101540.45
2018-09-11T05:51:10.128Z,101540.86
2018-09-11T05:52:15.530Z,101534.44
2018-09-11T05:53:20.976Z,101541.23
2018-09-11T05:54:26.405Z,101544.61
2018-09-11T05:55:31.804Z,101541.98
2018-09-11T05:56:37.270Z,101535.97
2018-09-11T05:57:42.701Z,101539.89
2018-09-11T05:58:48.160Z,101530.33
2018-09-11T05:59:53.620Z,101530.23
2018-09-11T06:00:59.204Z,101537.31
2018-09-11T06:02:04.705Z,101541.83
2018-09-11T06:03:10.106Z,101536.09
2018-09-11T06:04:15.505Z,101537.72
2018-09-11T06:05:21.366Z,101541.22
2018-09-11T06:06:26.896Z,101541.60
2018-09-11T06:07:32.404Z,101539.84
2018-09-11T06:08:37.829Z,101537.34
2018-09-11T06:09:43.222Z,101539.84
2018-09-11T06:10:49.005Z,101531.98
2018-09-11T06:11:54.468Z,101533.51
2018-09-11T06:12:59.841Z,101535.95
2018-09-11T06:14:05.305Z,101536.32
2018-09-11T06:15:10.694Z,101535.34
2018-09-11T06:16:16.198Z,101534.78
2018-09-11T06:17:21.618Z,101536.91
2018-09-11T06:18:27.064Z,101536.72
2018-09-11T06:19:32.444Z,101536.67
2018-09-11T06:20:37.860Z,101544.33
2018-09-11T06:21:43.308Z,101545.16
2018-09-11T06:22:48.825Z,101551.13
2018-09-11T06:23:54.245Z,101539.98
2018-09-11T06:24:59.636Z,101543.92
2018-09-11T06:26:05.179Z,101541.64
2018-09-11T06:27:10.575Z,101544.60
2018-09-11T06:28:15.992Z,101543.53
2018-09-11T06:29:21.394Z,101538.57
2018-09-11T06:30:26.812Z,101548.36
2018-09-11T06:31:32.312Z,101544.78
2018-09-11T06:32:37.740Z,101543.86
2018-09-11T06:33:43.173Z,101552.36
2018-09-11T06:34:48.572Z,101553.39
2018-09-11T06:35:53.956Z,101550.06
2018-09-11T06:36:59.404Z,101554.17
2018-09-11T06:38:04.822Z,101547.02
2018-09-11T06:39:11.443Z,101545.56
2018-09-11T06:40:16.912Z,101546.16
2018-09-11T06:41:22.309Z,101546.44
2018-09-11T06:42:27.736Z,101551.42
2018-09-11T06:43:33.165Z,101541.27
2018-09-11T06:44:38.809Z,101540.84
2018-09-11T06:45:44.240Z,101537.53
2018-09-11T06:46:49.669Z,101536.96
2018-09-11T06:47:55.038Z,101547.64
2018-09-11T06:49:00.437Z,101545.11
2018-09-11T06:50:05.968Z,101550.75
2018-09-11T06:51:11.378Z,101547.91
2018-09-11T06:52:16.761Z,101549.72
2018-09-11T06:53:22.136Z,101546.81
2018-09-11T06:54:27.533Z,101559.25
2018-09-11T06:55:33.201Z,101556.46
2018-09-11T06:56:38.768Z,101558.78
2018-09-11T06:57:44.210Z,101555.46
2018-09-11T06:58:49.704Z,101557.33
2018-09-11T06:59:55.120Z,101555.41
2018-09-11T07:01:00.569Z,101561.84
2018-09-11T07:02:06.092Z,101553.95
2018-09-11T07:03:11.485Z,101548.69
2018-09-11T07:04:16.921Z,101547.34
2018-09-11T07:05:22.487Z,101548.41
2018-09-11T07:06:28.312Z,101548.73
2018-09-11T07:07:33.929Z,101545.30
2018-09-11T07:08:39.481Z,101546.98
2018-09-11T07:09:44.869Z,101542.87
2018-09-11T07:10:50.269Z,101551.17
2018-09-11T07:11:55.689Z,101548.52
2018-09-11T07:13:01.132Z,101548.55
2018-09-11T07:14:06.821Z,101545.70
2018-09-11T07:15:12.484Z,101548.70
2018-09-11T07:16:17.957Z,101546.16
2018-09-11T07:17:23.353Z,101536.97
2018-09-11T07:18:28.784Z,101537.15
2018-09-11T07:19:34.396Z,101543.77
2018-09-11T07:20:39.785Z,101548.20
2018-09-11T07:21:45.250Z,101550.45
2018-09-11T07:22:50.669Z,101548.05
2018-09-11T07:23:56.448Z,101549.61
2018-09-11T07:25:02.321Z,101548.45
2018-09-11T07:26:08.145Z,101541.53
2018-09-11T07:27:13.805Z,101539.72
2018-09-11T07:28:19.208Z,101545.08
2018-09-11T07:29:24.725Z,101540.13
2018-09-11T07:30:30.698Z,101542.79
2018-09-11T07:31:36.832Z,101545.14
2018-09-11T07:32:42.256Z,101534.61
2018-09-11T07:33:47.798Z,101539.81
2018-09-11T07:34:53.172Z,101538.05
2018-09-11T07:35:58.607Z,101538.36
2018-09-11T07:37:04.034Z,101537.89
2018-09-11T07:38:09.472Z,101539.84
2018-09-11T07:39:14.890Z,101544.50
2018-09-11T07:40:20.326Z,101547.68
2018-09-11T07:41:25.733Z,101552.69
2018-09-11T07:42:31.349Z,101553.98
2018-09-11T07:43:36.813Z,101551.39
2018-09-11T07:44:42.232Z,101557.76
2018-09-11T07:45:47.665Z,101555.16
2018-09-11T07:46:53.101Z,101559.43
2018-09-11T07:47:58.477Z,101556.18
2018-09-11T07:49:03.885Z,101555.98
2018-09-11T07:50:09.372Z,101556.53
2018-09-11T07:51:14.797Z,101564.79
2018-09-11T07:52:20.252Z,101568.16
2018-09-11T07:53:25.652Z,101565.87
2018-09-11T07:54:31.053Z,101561.63
2018-09-11T07:55:36.444Z,101567.52
2018-09-11T07:56:41.865Z,101562.92
2018-09-11T07:57:47.261Z,101559.15
2018-09-11T07:58:52.727Z,101564.20
2018-09-11T07:59:58.340Z,101560.77
2018-09-11T08:01:04.284Z,101558.22
2018-09-11T08:02:09.862Z,101560.67
2018-09-11T08:03:15.404Z,101556.12
2018-09-11T08:04:20.783Z,101559.20
2018-09-11T08:05:26.290Z,101556.07
2018-09-11T08:06:32.241Z,101560.77
2018-09-11T08:07:37.768Z,101560.23
2018-09-11T08:08:43.225Z,101562.44
2018-09-11T08:09:48.601Z,101565.97
2018-09-11T08:10:54.150Z,101562.84
2018-09-11T08:11:59.619Z,101575.74
2018-09-11T08:13:05.009Z,101580.09
2018-09-11T08:14:10.825Z,101586.72
2018-09-11T08:15:16.317Z,101579.38
2018-09-11T08:16:21.745Z,101586.36
2018-09-11T08:17:27.256Z,101587.53
2018-09-11T08:18:32.795Z,101595.39
2018-09-11T08:19:38.640Z,101599.35
2018-09-11T08:20:44.085Z,101594.55
2018-09-11T08:21:49.730Z,101595.56
2018-09-11T08:22:55.180Z,101594.27
2018-09-11T08:24:00.681Z,101589.02
2018-09-11T08:25:06.360Z,101586.05
2018-09-11T08:26:11.772Z,101581.45
2018-09-11T08:27:17.183Z,101587.06
2018-09-11T08:28:22.596Z,101581.71
2018-09-11T08:29:28.115Z,101583.19
2018-09-11T08:30:33.657Z,101584.05
2018-09-11T08:31:39.033Z,101580.88
2018-09-11T08:32:44.489Z,101574.72
2018-09-11T08:33:49.866Z,101575.50
2018-09-11T08:34:55.434Z,101580.73
2018-09-11T08:36:00.873Z,101582.97
2018-09-11T08:37:06.489Z,101583.51
2018-09-11T08:38:11.957Z,101582.48
2018-09-11T08:39:17.361Z,101588.25
2018-09-11T08:40:22.801Z,101582.78
2018-09-11T08:41:28.398Z,101585.48
2018-09-11T08:42:33.958Z,101579.08
2018-09-11T08:43:39.813Z,101592.55
2018-09-11T08:44:45.277Z,101592.58
2018-09-11T08:45:50.753Z,101597.00
2018-09-11T08:46:56.143Z,101587.53
2018-09-11T08:48:01.605Z,101592.23
2018-09-11T08:49:07.329Z,101600.87
2018-09-11T08:50:12.761Z,101590.19
2018-09-11T08:51:18.144Z,101596.27
2018-09-11T08:52:23.561Z,101599.98
2018-09-11T08:53:28.937Z,101601.62
2018-09-11T08:54:34.385Z,101590.00
2018-09-11T08:55:39.829Z,101589.16
2018-09-11T08:56:45.268Z,101590.61
2018-09-11T08:57:50.738Z,101588.88
2018-09-11T08:58:56.145Z,101592.06
2018-09-11T09:00:01.915Z,101592.24
2018-09-11T09:01:08.202Z,101603.77
2018-09-11T09:02:13.600Z,101593.00
2018-09-11T09:03:19.038Z,101595.97
2018-09-11T09:04:24.417Z,101599.87
2018-09-11T09:05:29.907Z,101586.42
2018-09-11T09:06:35.338Z,101600.20
2018-09-11T09:07:40.784Z,101594.31
2018-09-11T09:08:46.232Z,101597.13
2018-09-11T09:09:51.674Z,101592.16
2018-09-11T09:10:57.076Z,101591.14
2018-09-11T09:12:02.493Z,101602.24
2018-09-11T09:13:08.121Z,101587.80
2018-09-11T09:14:13.516Z,101589.30
2018-09-11T09:15:18.895Z,101585.60
2018-09-11T09:16:24.378Z,101583.20
2018-09-11T09:17:29.829Z,101584.64
2018-09-11T09:18:35.257Z,101592.39
2018-09-11T09:19:40.698Z,101598.42
2018-09-11T09:20:46.282Z,101598.70
2018-09-11T09:21:51.684Z,101596.86
2018-09-11T09:22:57.149Z,101594.23
2018-09-11T09:24:02.605Z,101587.09
2018-09-11T09:25:08.296Z,101586.08
2018-09-11T09:26:13.779Z,101584.41
2018-09-11T09:27:19.180Z,101586.31
2018-09-11T09:28:24.675Z,101584.39
2018-09-11T09:29:30.074Z,101582.14
2018-09-11T09:30:35.609Z,101586.19
2018-09-11T09:31:41.005Z,101578.41
2018-09-11T09:32:46.845Z,101582.80
2018-09-11T09:33:52.268Z,101580.01
2018-09-11T09:34:57.638Z,101576.25
2018-09-11T09:36:03.036Z,101573.86
2018-09-11T09:37:08.500Z,101564.05
2018-09-11T09:38:13.988Z,101572.48
2018-09-11T09:39:19.413Z,101575.66
2018-09-11T09:40:24.870Z,101588.98
2018-09-11T09:41:30.281Z,101586.31
2018-09-11T09:42:35.707Z,101586.08
2018-09-11T09:43:41.298Z,101588.81
2018-09-11T09:44:46.781Z,101594.70
2018-09-11T09:45:52.225Z,101587.79
2018-09-11T09:46:57.680Z,101593.13
2018-09-11T09:48:03.097Z,101588.98
2018-09-11T09:49:08.533Z,101584.19
2018-09-11T09:50:13.950Z,101574.98
2018-09-11T09:51:19.313Z,101578.10
2018-09-11T09:52:24.879Z,101576.61
2018-09-11T09:53:30.444Z,101580.47
2018-09-11T09:54:35.944Z,101575.85
2018-09-11T09:55:41.414Z,101572.18
2018-09-11T09:56:46.947Z,101577.28
2018-09-11T09:57:52.361Z,101574.05
2018-09-11T09:58:57.765Z,101580.88
2018-09-11T10:00:03.372Z,101586.57
2018-09-11T10:01:14.037Z,101584.83
2018-09-11T10:02:22.438Z,101581.70
2018-09-11T10:03:27.796Z,101580.95
2018-09-11T10:04:33.834Z,101578.85
2018-09-11T10:05:39.254Z,101584.16
2018-09-11T10:06:44.713Z,101578.38
2018-09-11T10:07:50.233Z,101589.45
2018-09-11T10:08:55.622Z,101580.55
2018-09-11T10:10:01.056Z,101590.80
2018-09-11T10:11:06.685Z,101590.16
2018-09-11T10:12:12.163Z,101591.69
2018-09-11T10:13:17.603Z,101592.72
2018-09-11T10:14:23.460Z,101588.64
2018-09-11T10:15:28.982Z,101588.36
2018-09-11T10:16:34.440Z,101594.91
2018-09-11T10:17:39.885Z,101584.13
2018-09-11T10:18:45.290Z,101590.07
2018-09-11T10:19:50.808Z,101579.17
2018-09-11T10:20:56.188Z,101583.27
2018-09-11T10:22:01.605Z,101581.80
2018-09-11T10:23:07.069Z,101579.77
2018-09-11T10:24:12.472Z,101589.17
2018-09-11T10:25:18.373Z,101593.02
2018-09-11T10:26:23.736Z,101596.47
2018-09-11T10:27:29.230Z,101597.21
2018-09-11T10:28:34.657Z,101598.82
2018-09-11T10:29:40.149Z,101604.41
2018-09-11T10:30:45.918Z,101599.02
2018-09-11T10:31:51.326Z,101599.58
2018-09-11T10:32:56.740Z,101597.15
2018-09-11T10:34:02.161Z,101604.07
2018-09-11T10:35:07.662Z,101602.55
2018-09-11T10:36:13.109Z,101601.82
2018-09-11T10:37:18.557Z,101601.38
2018-09-11T10:38:23.974Z,101610.66
2018-09-11T10:39:29.422Z,101603.64
2018-09-11T10:40:34.888Z,101611.39
2018-09-11T10:41:40.356Z,101604.20
2018-09-11T10:42:45.750Z,101600.64
2018-09-11T10:43:51.321Z,101599.06
2018-09-11T10:44:56.751Z,101586.16
2018-09-11T10:46:02.221Z,101585.98
2018-09-11T10:47:07.652Z,101586.25
2018-09-11T10:48:13.061Z,101584.20
2018-09-11T10:49:18.514Z,101578.98
2018-09-11T10:50:23.897Z,101578.80
2018-09-11T10:51:29.352Z,101578.23
2018-09-11T10:52:34.753Z,101577.84
2018-09-11T10:53:40.169Z,101577.18
2018-09-11T10:54:45.681Z,101580.36
2018-09-11T10:55:51.557Z,101586.31
2018-09-11T10:56:57.505Z,101587.16
2018-09-11T10:58:02.910Z,101582.58
2018-09-11T10:59:08.316Z,101587.70
2018-09-11T11:00:13.761Z,101582.77
2018-09-11T11:01:19.140Z,101590.63
2018-09-11T11:02:24.504Z,101586.70
2018-09-11T11:03:30.227Z,101587.36
2018-09-11T11:04:35.681Z,101589.78
2018-09-11T11:05:41.086Z,101596.50
2018-09-11T11:06:46.510Z,101591.27
2018-09-11T11:07:51.985Z,101581.83
2018-09-11T11:08:57.418Z,101574.93
2018-09-11T11:10:02.860Z,101580.90
2018-09-11T11:11:08.328Z,101578.47
2018-09-11T11:12:13.808Z,101585.39
2018-09-11T11:13:19.288Z,101581.73
2018-09-11T11:14:24.786Z,101583.67
2018-09-11T11:15:30.255Z,101582.45
2018-09-11T11:16:35.672Z,101581.25
2018-09-11T11:17:41.083Z,101576.95
2018-09-11T11:18:46.560Z,101580.95
2018-09-11T11:19:51.963Z,101577.31
2018-09-11T11:20:57.380Z,101575.63
2018-09-11T11:22:02.831Z,101569.14
2018-09-11T11:23:08.393Z,101575.84
2018-09-11T11:24:14.089Z,101578.34
2018-09-11T11:25:19.645Z,101577.34
2018-09-11T11:26:25.184Z,101568.50
2018-09-11T11:27:30.598Z,101575.66
2018-09-11T11:28:35.956Z,101575.87
2018-09-11T11:29:41.375Z,101574.22
2018-09-11T11:30:46.761Z,101591.15
2018-09-11T11:31:52.437Z,101577.79
2018-09-11T11:32:57.837Z,101584.23
2018-09-11T11:34:04.050Z,101582.05
2018-09-11T11:35:09.436Z,101573.77
2018-09-11T11:36:14.930Z,101581.19
2018-09-11T11:37:20.797Z,101579.30
2018-09-11T11:38:26.368Z,101576.39
2018-09-11T11:39:32.204Z,101576.09
2018-09-11T11:40:38.121Z,101580.91
2018-09-11T11:41:44.041Z,101575.47
2018-09-11T11:42:50.059Z,101567.95
2018-09-11T11:43:55.949Z,101576.83
2018-09-11T11:45:01.852Z,101575.81
2018-09-11T11:46:07.838Z,101573.67
2018-09-11T11:47:13.680Z,101578.34
2018-09-11T11:48:19.663Z,101577.94
2018-09-11T11:49:25.572Z,101572.94
2018-09-11T11:50:31.552Z,101580.02
2018-09-11T11:51:37.420Z,101572.64
2018-09-11T11:52:43.569Z,101577.07
2018-09-11T11:53:49.605Z,101577.16
2018-09-11T11:54:55.646Z,101580.23
2018-09-11T11:56:01.820Z,101578.76
2018-09-11T11:57:06.788Z,101588.55
2018-09-11T11:58:11.933Z,101583.03
2018-09-11T11:59:16.997Z,101586.57
2018-09-11T12:00:22.479Z,101581.05
2018-09-11T12:01:27.853Z,101589.00
2018-09-11T12:02:33.237Z,101580.54
2018-09-11T12:03:38.650Z,101587.83
2018-09-11T12:04:44.137Z,101583.58
2018-09-11T12:05:49.966Z,101581.73
2018-09-11T12:06:55.349Z,101578.27
2018-09-11T12:08:00.725Z,101584.19
2018-09-11T12:09:09.756Z,101584.62
2018-09-11T12:10:15.236Z,101585.02
2018-09-11T12:11:20.806Z,101590.80
2018-09-11T12:12:26.208Z,101599.31
2018-09-11T12:13:31.614Z,101595.35
2018-09-11T12:14:37.013Z,101597.98
2018-09-11T12:15:42.485Z,101596.88
2018-09-11T12:16:47.938Z,101603.93
2018-09-11T12:17:53.293Z,101600.77
2018-09-11T12:18:58.753Z,101600.20
2018-09-11T12:20:04.249Z,101595.73
2018-09-11T12:21:09.805Z,101597.70
2018-09-11T12:22:15.289Z,101596.14
2018-09-11T12:23:20.652Z,101589.22
2018-09-11T12:24:26.046Z,101590.33
2018-09-11T12:25:31.467Z,101585.22
2018-09-11T12:26:36.855Z,101585.20
2018-09-11T12:27:42.250Z,101586.53